sensor_id;sensor_type;location;lat;lon;timestamp;pressure;altitude;pressure_sealevel;temperature;humidity
67397;BME280;57728;50.448;18.824;2023-04-09T00:00:10;98405.25;;;7.75;69.27
67397;BME280;57728;50.448;18.824;2023-04-09T00:02:16;98517.66;;;8.41;69.25
67397;BME280;57728;50.448;18.824;2023-04-09T00:04:17;98463.53;;;8.06;69.25
67397;BME280;57728;50.448;18.824;2023-04-09T00:06:19;98471.25;;;8.16;69.08
67397;BME280;57728;50.448;18.824;2023-04-09T00:08:20;98427.19;;;7.87;68.86
67397;BME280;57728;50.448;18.824;2023-04-09T00:10:23;98507.22;;;8.38;68.82
67397;BME280;57728;50.448;18.824;2023-04-09T00:12:25;98310.81;;;7.10;68.38
67397;BME280;57728;50.448;18.824;2023-04-09T00:14:27;98506.13;;;8.25;68.73
67397;BME280;57728;50.448;18.824;2023-04-09T00:16:28;98503.41;;;8.25;68.74
67397;BME280;57728;50.448;18.824;2023-04-09T00:18:30;98460.34;;;7.89;68.88
67397;BME280;57728;50.448;18.824;2023-04-09T00:20:31;98371.66;;;7.21;68.79
67397;BME280;57728;50.448;18.824;2023-04-09T00:22:33;98498.97;;;8.04;69.08
67397;BME280;57728;50.448;18.824;2023-04-09T00:24:35;98325.09;;;6.91;69.14
67397;BME280;57728;50.448;18.824;2023-04-09T00:26:36;98453.56;;;7.58;69.64
67397;BME280;57728;50.448;18.824;2023-04-09T00:28:37;98503.94;;;7.94;69.84
67397;BME280;57728;50.448;18.824;2023-04-09T00:30:41;98479.06;;;7.77;69.82
67397;BME280;57728;50.448;18.824;2023-04-09T00:32:42;98290.31;;;6.52;70.05
67397;BME280;57728;50.448;18.824;2023-04-09T00:34:43;98508.31;;;7.88;70.37
67397;BME280;57728;50.448;18.824;2023-04-09T00:36:46;98505.78;;;7.87;70.35
67397;BME280;57728;50.448;18.824;2023-04-09T00:38:49;98379.78;;;7.14;70.40
67397;BME280;57728;50.448;18.824;2023-04-09T00:40:50;98353.34;;;6.81;70.49
67397;BME280;57728;50.448;18.824;2023-04-09T00:42:52;98453.47;;;7.45;70.68
67397;BME280;57728;50.448;18.824;2023-04-09T00:44:54;98394.59;;;7.18;70.72
67397;BME280;57728;50.448;18.824;2023-04-09T00:46:57;98495.97;;;7.79;70.89
67397;BME280;57728;50.448;18.824;2023-04-09T00:49:01;98226.78;;;6.07;70.70
67397;BME280;57728;50.448;18.824;2023-04-09T00:51:02;98489.88;;;7.70;71.06
67397;BME280;57728;50.448;18.824;2023-04-09T00:53:04;98484.59;;;7.55;71.31
67397;BME280;57728;50.448;18.824;2023-04-09T00:55:08;98509.03;;;7.69;71.38
67397;BME280;57728;50.448;18.824;2023-04-09T00:57:10;98445.72;;;7.35;71.37
67397;BME280;57728;50.448;18.824;2023-04-09T00:59:12;98498.19;;;7.69;71.59
67397;BME280;57728;50.448;18.824;2023-04-09T01:01:14;98476.41;;;7.49;71.59
67397;BME280;57728;50.448;18.824;2023-04-09T01:03:16;98373.19;;;6.88;71.62
67397;BME280;57728;50.448;18.824;2023-04-09T01:05:18;98517.41;;;7.74;72.02
67397;BME280;57728;50.448;18.824;2023-04-09T01:10:34;98514.94;;;7.79;71.84
67397;BME280;57728;50.448;18.824;2023-04-09T01:13:12;98514.75;;;7.81;71.82
67397;BME280;57728;50.448;18.824;2023-04-09T01:15:25;98458.28;;;7.49;71.88
67397;BME280;57728;50.448;18.824;2023-04-09T01:21:59;98522.13;;;8.00;71.91
67397;BME280;57728;50.448;18.824;2023-04-09T01:24:28;98516.72;;;8.07;71.74
67397;BME280;57728;50.448;18.824;2023-04-09T01:27:01;98507.13;;;8.11;71.55
67397;BME280;57728;50.448;18.824;2023-04-09T01:29:14;98514.88;;;8.14;71.42
67397;BME280;57728;50.448;18.824;2023-04-09T01:31:19;98475.34;;;7.91;71.26
67397;BME280;57728;50.448;18.824;2023-04-09T01:33:28;98419.97;;;7.52;71.35
67397;BME280;57728;50.448;18.824;2023-04-09T01:35:31;98434.44;;;7.73;71.13
67397;BME280;57728;50.448;18.824;2023-04-09T01:37:34;98319.34;;;7.07;70.86
67397;BME280;57728;50.448;18.824;2023-04-09T01:39:37;98513.66;;;8.23;70.76
67397;BME280;57728;50.448;18.824;2023-04-09T01:41:40;98513.84;;;8.22;70.71
67397;BME280;57728;50.448;18.824;2023-04-09T01:43:44;98518.44;;;8.21;70.47
67397;BME280;57728;50.448;18.824;2023-04-09T01:45:47;98474.34;;;7.99;70.73
67397;BME280;57728;50.448;18.824;2023-04-09T01:47:51;98524.28;;;8.25;70.72
67397;BME280;57728;50.448;18.824;2023-04-09T01:49:56;98476.66;;;8.02;70.46
67397;BME280;57728;50.448;18.824;2023-04-09T01:51:59;98461.59;;;7.86;70.38
67397;BME280;57728;50.448;18.824;2023-04-09T01:54:00;98383.47;;;7.48;70.36
67397;BME280;57728;50.448;18.824;2023-04-09T01:56:02;98538.94;;;8.31;70.54
67397;BME280;57728;50.448;18.824;2023-04-09T01:58:04;98441.16;;;7.84;70.35
67397;BME280;57728;50.448;18.824;2023-04-09T02:00:07;98474.19;;;8.07;70.06
67397;BME280;57728;50.448;18.824;2023-04-09T02:02:26;98520.59;;;8.33;70.23
67397;BME280;57728;50.448;18.824;2023-04-09T02:04:45;98523.28;;;8.33;70.18
67397;BME280;57728;50.448;18.824;2023-04-09T02:07:08;98372.16;;;7.31;69.84
67397;BME280;57728;50.448;18.824;2023-04-09T02:09:17;98466.59;;;7.89;70.16
67397;BME280;57728;50.448;18.824;2023-04-09T02:11:22;98501.31;;;8.14;70.12
67397;BME280;57728;50.448;18.824;2023-04-09T02:13:29;98531.00;;;8.29;70.18
67397;BME280;57728;50.448;18.824;2023-04-09T02:15:35;98523.06;;;8.27;70.23
67397;BME280;57728;50.448;18.824;2023-04-09T02:17:40;98395.97;;;7.43;70.11
67397;BME280;57728;50.448;18.824;2023-04-09T02:19:44;98364.19;;;7.23;70.11
67397;BME280;57728;50.448;18.824;2023-04-09T02:21:47;98450.69;;;7.73;70.26
67397;BME280;57728;50.448;18.824;2023-04-09T02:23:49;98520.13;;;8.22;70.36
67397;BME280;57728;50.448;18.824;2023-04-09T02:25:52;98408.44;;;7.37;70.20
67397;BME280;57728;50.448;18.824;2023-04-09T02:27:54;98520.72;;;8.18;70.45
67397;BME280;57728;50.448;18.824;2023-04-09T02:29:56;98453.84;;;7.77;70.30
67397;BME280;57728;50.448;18.824;2023-04-09T02:31:57;98320.94;;;6.95;70.17
67397;BME280;57728;50.448;18.824;2023-04-09T02:33:59;98362.47;;;7.09;70.26
67397;BME280;57728;50.448;18.824;2023-04-09T02:36:01;98317.78;;;6.84;70.57
67397;BME280;57728;50.448;18.824;2023-04-09T02:38:02;98327.34;;;6.87;70.58
67397;BME280;57728;50.448;18.824;2023-04-09T02:40:04;98508.75;;;7.99;70.69
67397;BME280;57728;50.448;18.824;2023-04-09T02:42:06;98436.03;;;7.54;70.84
67397;BME280;57728;50.448;18.824;2023-04-09T02:44:07;98308.09;;;6.68;70.94
67397;BME280;57728;50.448;18.824;2023-04-09T02:46:09;98469.03;;;7.71;70.96
67397;BME280;57728;50.448;18.824;2023-04-09T02:48:11;98341.94;;;6.93;70.85
67397;BME280;57728;50.448;18.824;2023-04-09T02:50:12;98522.72;;;7.96;70.94
67397;BME280;57728;50.448;18.824;2023-04-09T02:52:20;98466.50;;;7.63;71.04
67397;BME280;57728;50.448;18.824;2023-04-09T02:54:25;98505.19;;;7.91;70.83
67397;BME280;57728;50.448;18.824;2023-04-09T02:56:26;98379.13;;;7.12;70.92
67397;BME280;57728;50.448;18.824;2023-04-09T02:58:27;98371.00;;;7.05;70.99
67397;BME280;57728;50.448;18.824;2023-04-09T03:00:29;98508.25;;;7.82;71.05
67397;BME280;57728;50.448;18.824;2023-04-09T03:02:31;98509.97;;;7.89;71.04
67397;BME280;57728;50.448;18.824;2023-04-09T03:04:32;98491.50;;;7.65;71.17
67397;BME280;57728;50.448;18.824;2023-04-09T03:06:34;98504.53;;;7.83;71.34
67397;BME280;57728;50.448;18.824;2023-04-09T03:08:35;98414.97;;;7.14;71.10
67397;BME280;57728;50.448;18.824;2023-04-09T03:10:36;98479.78;;;7.57;71.28
67397;BME280;57728;50.448;18.824;2023-04-09T03:12:39;98513.69;;;7.75;71.52
67397;BME280;57728;50.448;18.824;2023-04-09T03:14:40;98514.69;;;7.74;71.62
67397;BME280;57728;50.448;18.824;2023-04-09T03:16:41;98514.69;;;7.74;71.88
67397;BME280;57728;50.448;18.824;2023-04-09T03:18:43;98520.94;;;7.74;71.69
67397;BME280;57728;50.448;18.824;2023-04-09T03:20:45;98516.59;;;7.73;71.66
67397;BME280;57728;50.448;18.824;2023-04-09T03:22:48;98483.53;;;7.50;71.81
67397;BME280;57728;50.448;18.824;2023-04-09T03:24:59;98528.88;;;7.76;71.84
67397;BME280;57728;50.448;18.824;2023-04-09T03:27:00;98447.38;;;7.36;71.78
67397;BME280;57728;50.448;18.824;2023-04-09T03:29:04;98521.66;;;7.83;71.82
67397;BME280;57728;50.448;18.824;2023-04-09T03:31:07;98485.06;;;7.66;71.82
67397;BME280;57728;50.448;18.824;2023-04-09T03:33:11;98479.44;;;7.67;71.76
67397;BME280;57728;50.448;18.824;2023-04-09T03:35:22;98371.16;;;6.97;71.57
67397;BME280;57728;50.448;18.824;2023-04-09T03:37:30;98522.03;;;7.80;71.73
67397;BME280;57728;50.448;18.824;2023-04-09T03:39:31;98464.97;;;7.53;71.71
67397;BME280;57728;50.448;18.824;2023-04-09T03:41:33;98461.00;;;7.49;71.78
67397;BME280;57728;50.448;18.824;2023-04-09T03:43:38;98492.78;;;7.69;72.05
67397;BME280;57728;50.448;18.824;2023-04-09T03:45:41;98452.00;;;7.42;71.76
67397;BME280;57728;50.448;18.824;2023-04-09T03:47:53;98487.94;;;7.57;71.88
67397;BME280;57728;50.448;18.824;2023-04-09T03:49:58;98293.72;;;6.33;71.83
67397;BME280;57728;50.448;18.824;2023-04-09T03:52:02;98378.94;;;6.79;72.19
67397;BME280;57728;50.448;18.824;2023-04-09T03:54:10;98347.13;;;6.52;72.38
67397;BME280;57728;50.448;18.824;2023-04-09T03:56:14;98485.94;;;7.38;72.46
67397;BME280;57728;50.448;18.824;2023-04-09T03:58:15;98338.72;;;6.41;72.58
67397;BME280;57728;50.448;18.824;2023-04-09T04:00:16;98516.34;;;7.33;72.75
67397;BME280;57728;50.448;18.824;2023-04-09T04:02:37;98460.97;;;7.08;72.80
67397;BME280;57728;50.448;18.824;2023-04-09T04:04:41;98518.41;;;7.31;72.76
67397;BME280;57728;50.448;18.824;2023-04-09T04:06:44;98366.19;;;6.44;72.81
67397;BME280;57728;50.448;18.824;2023-04-09T04:09:00;98508.41;;;7.32;73.09
67397;BME280;57728;50.448;18.824;2023-04-09T04:11:12;98480.84;;;7.21;73.16
67397;BME280;57728;50.448;18.824;2023-04-09T04:13:14;98509.69;;;7.36;73.05
67397;BME280;57728;50.448;18.824;2023-04-09T04:15:23;98467.25;;;7.15;73.07
67397;BME280;57728;50.448;18.824;2023-04-09T04:17:28;98469.38;;;7.19;73.04
67397;BME280;57728;50.448;18.824;2023-04-09T04:19:30;98447.44;;;7.08;73.16
67397;BME280;57728;50.448;18.824;2023-04-09T04:21:32;98476.06;;;7.23;72.90
67397;BME280;57728;50.448;18.824;2023-04-09T04:23:36;98450.06;;;7.01;73.00
67397;BME280;57728;50.448;18.824;2023-04-09T04:25:50;98520.94;;;7.33;73.03
67397;BME280;57728;50.448;18.824;2023-04-09T04:27:59;98510.50;;;7.30;73.40
67397;BME280;57728;50.448;18.824;2023-04-09T04:30:10;98507.13;;;7.28;73.45
67397;BME280;57728;50.448;18.824;2023-04-09T04:32:24;98459.41;;;6.92;73.64
67397;BME280;57728;50.448;18.824;2023-04-09T04:34:28;98514.63;;;7.26;73.64
67397;BME280;57728;50.448;18.824;2023-04-09T04:36:42;98517.34;;;7.26;73.71
67397;BME280;57728;50.448;18.824;2023-04-09T04:38:44;98475.50;;;7.00;73.43
67397;BME280;57728;50.448;18.824;2023-04-09T04:40:52;98441.38;;;6.77;73.76
67397;BME280;57728;50.448;18.824;2023-04-09T04:42:55;98497.84;;;7.09;73.88
67397;BME280;57728;50.448;18.824;2023-04-09T04:44:56;98473.63;;;7.00;73.79
67397;BME280;57728;50.448;18.824;2023-04-09T04:47:24;98521.53;;;7.28;74.03
67397;BME280;57728;50.448;18.824;2023-04-09T04:49:25;98455.22;;;6.89;74.02
67397;BME280;57728;50.448;18.824;2023-04-09T04:51:29;98521.94;;;7.32;73.98
67397;BME280;57728;50.448;18.824;2023-04-09T04:53:51;98516.94;;;7.29;74.11
67397;BME280;57728;50.448;18.824;2023-04-09T04:55:53;98385.78;;;6.46;74.07
67397;BME280;57728;50.448;18.824;2023-04-09T04:57:58;98321.50;;;6.20;74.08
67397;BME280;57728;50.448;18.824;2023-04-09T05:00:03;98487.16;;;7.29;74.23
67397;BME280;57728;50.448;18.824;2023-04-09T05:02:06;98518.34;;;7.53;74.10
67397;BME280;57728;50.448;18.824;2023-04-09T05:04:21;98514.66;;;7.61;73.97
67397;BME280;57728;50.448;18.824;2023-04-09T05:06:23;98433.53;;;7.17;73.80
67397;BME280;57728;50.448;18.824;2023-04-09T05:08:26;98491.03;;;7.54;73.83
67397;BME280;57728;50.448;18.824;2023-04-09T05:10:29;98482.09;;;7.54;73.77
67397;BME280;57728;50.448;18.824;2023-04-09T05:12:33;98523.50;;;7.83;73.50
67397;BME280;57728;50.448;18.824;2023-04-09T05:14:35;98371.16;;;6.97;73.51
67397;BME280;57728;50.448;18.824;2023-04-09T05:16:37;98508.53;;;7.94;73.47
67397;BME280;57728;50.448;18.824;2023-04-09T05:18:40;98461.69;;;7.65;73.06
67397;BME280;57728;50.448;18.824;2023-04-09T05:20:42;98481.56;;;7.72;72.94
67397;BME280;57728;50.448;18.824;2023-04-09T05:22:43;98476.13;;;7.72;73.18
67397;BME280;57728;50.448;18.824;2023-04-09T05:24:45;98471.75;;;7.71;73.10
67397;BME280;57728;50.448;18.824;2023-04-09T05:26:48;98361.81;;;7.06;73.14
67397;BME280;57728;50.448;18.824;2023-04-09T05:28:49;98480.34;;;7.81;73.42
67397;BME280;57728;50.448;18.824;2023-04-09T05:30:54;98515.06;;;8.06;73.14
67397;BME280;57728;50.448;18.824;2023-04-09T05:32:55;98464.88;;;7.75;73.02
67397;BME280;57728;50.448;18.824;2023-04-09T05:35:00;98520.09;;;8.09;72.97
67397;BME280;57728;50.448;18.824;2023-04-09T05:37:05;98525.13;;;8.19;73.21
67397;BME280;57728;50.448;18.824;2023-04-09T05:39:07;98481.63;;;7.99;72.92
67397;BME280;57728;50.448;18.824;2023-04-09T05:41:08;98498.78;;;8.13;72.58
67397;BME280;57728;50.448;18.824;2023-04-09T05:43:19;98474.13;;;7.94;72.16
67397;BME280;57728;50.448;18.824;2023-04-09T05:45:21;98454.72;;;7.90;72.33
67397;BME280;57728;50.448;18.824;2023-04-09T05:47:26;98540.66;;;8.45;72.56
67397;BME280;57728;50.448;18.824;2023-04-09T05:50:01;98510.13;;;8.30;72.28
67397;BME280;57728;50.448;18.824;2023-04-09T05:52:04;98460.84;;;8.06;72.21
67397;BME280;57728;50.448;18.824;2023-04-09T05:54:06;98546.72;;;8.54;72.14
67397;BME280;57728;50.448;18.824;2023-04-09T05:56:13;98513.28;;;8.33;72.07
67397;BME280;57728;50.448;18.824;2023-04-09T05:58:23;98491.31;;;8.21;72.19
67397;BME280;57728;50.448;18.824;2023-04-09T06:00:25;98531.88;;;8.43;72.17
67397;BME280;57728;50.448;18.824;2023-04-09T06:02:27;98524.75;;;8.42;72.22
67397;BME280;57728;50.448;18.824;2023-04-09T06:04:29;98390.16;;;7.52;71.97
67397;BME280;57728;50.448;18.824;2023-04-09T06:06:30;98517.00;;;8.32;72.24
67397;BME280;57728;50.448;18.824;2023-04-09T06:08:32;98467.50;;;8.10;72.27
67397;BME280;57728;50.448;18.824;2023-04-09T06:10:33;98548.22;;;8.56;72.27
67397;BME280;57728;50.448;18.824;2023-04-09T06:12:35;98531.44;;;8.33;72.26
67397;BME280;57728;50.448;18.824;2023-04-09T06:14:38;98538.81;;;8.52;72.26
67397;BME280;57728;50.448;18.824;2023-04-09T06:16:39;98569.13;;;8.63;72.23
67397;BME280;57728;50.448;18.824;2023-04-09T06:18:41;98406.06;;;7.69;72.05
67397;BME280;57728;50.448;18.824;2023-04-09T06:20:43;98533.16;;;8.47;72.22
67397;BME280;57728;50.448;18.824;2023-04-09T06:22:44;98559.31;;;8.68;72.29
67397;BME280;57728;50.448;18.824;2023-04-09T06:24:45;98564.31;;;8.71;72.26
67397;BME280;57728;50.448;18.824;2023-04-09T06:26:48;98533.00;;;8.55;72.08
67397;BME280;57728;50.448;18.824;2023-04-09T06:28:49;98392.13;;;7.72;72.25
67397;BME280;57728;50.448;18.824;2023-04-09T06:30:52;98572.50;;;8.78;72.29
67397;BME280;57728;50.448;18.824;2023-04-09T06:32:55;98493.22;;;8.41;72.32
67397;BME280;57728;50.448;18.824;2023-04-09T06:34:56;98493.88;;;8.43;72.10
67397;BME280;57728;50.448;18.824;2023-04-09T06:36:57;98430.78;;;8.07;71.98
67397;BME280;57728;50.448;18.824;2023-04-09T06:39:00;98532.78;;;8.70;71.87
67397;BME280;57728;50.448;18.824;2023-04-09T06:41:01;98563.75;;;8.89;71.68
67397;BME280;57728;50.448;18.824;2023-04-09T06:43:04;98248.47;;;6.97;71.93
67397;BME280;57728;50.448;18.824;2023-04-09T06:45:16;98524.44;;;8.72;72.04
67397;BME280;57728;50.448;18.824;2023-04-09T06:47:17;98452.13;;;8.31;71.94
67397;BME280;57728;50.448;18.824;2023-04-09T06:49:18;98575.44;;;9.10;71.75
67397;BME280;57728;50.448;18.824;2023-04-09T06:51:20;98519.22;;;8.77;71.74
67397;BME280;57728;50.448;18.824;2023-04-09T06:53:22;98580.47;;;9.20;71.59
67397;BME280;57728;50.448;18.824;2023-04-09T06:55:23;98544.53;;;9.11;71.61
67397;BME280;57728;50.448;18.824;2023-04-09T06:57:25;98588.81;;;9.45;71.17
67397;BME280;57728;50.448;18.824;2023-04-09T06:59:26;98484.34;;;8.87;70.92
67397;BME280;57728;50.448;18.824;2023-04-09T07:01:28;98565.00;;;9.34;70.51
67397;BME280;57728;50.448;18.824;2023-04-09T07:03:30;98442.78;;;8.60;70.40
67397;BME280;57728;50.448;18.824;2023-04-09T07:05:31;98554.75;;;9.36;70.70
67397;BME280;57728;50.448;18.824;2023-04-09T07:07:33;98588.19;;;9.63;70.43
67397;BME280;57728;50.448;18.824;2023-04-09T07:09:35;98593.00;;;9.68;70.50
67397;BME280;57728;50.448;18.824;2023-04-09T07:11:36;98572.28;;;9.60;70.39
67397;BME280;57728;50.448;18.824;2023-04-09T07:13:37;98583.16;;;9.80;70.30
67397;BME280;57728;50.448;18.824;2023-04-09T07:15:39;98594.19;;;9.85;70.35
67397;BME280;57728;50.448;18.824;2023-04-09T07:17:41;98589.56;;;9.92;69.78
67397;BME280;57728;50.448;18.824;2023-04-09T07:19:43;98508.53;;;9.36;69.70
67397;BME280;57728;50.448;18.824;2023-04-09T07:21:45;98560.75;;;9.78;69.68
67397;BME280;57728;50.448;18.824;2023-04-09T07:23:46;98565.75;;;9.88;69.74
67397;BME280;57728;50.448;18.824;2023-04-09T07:25:47;98592.47;;;10.11;69.48
67397;BME280;57728;50.448;18.824;2023-04-09T07:27:49;98587.03;;;10.11;69.44
67397;BME280;57728;50.448;18.824;2023-04-09T07:29:54;98556.94;;;9.99;69.22
67397;BME280;57728;50.448;18.824;2023-04-09T07:31:56;98528.09;;;9.85;69.18
67397;BME280;57728;50.448;18.824;2023-04-09T07:33:58;98540.38;;;10.07;68.89
67397;BME280;57728;50.448;18.824;2023-04-09T07:35:59;98600.09;;;10.47;69.16
67397;BME280;57728;50.448;18.824;2023-04-09T07:38:01;98468.72;;;9.75;68.64
67397;BME280;57728;50.448;18.824;2023-04-09T07:40:04;98559.72;;;10.38;68.59
67397;BME280;57728;50.448;18.824;2023-04-09T07:42:05;98596.44;;;10.67;68.54
67397;BME280;57728;50.448;18.824;2023-04-09T07:44:07;98424.84;;;9.64;68.18
67397;BME280;57728;50.448;18.824;2023-04-09T07:46:09;98607.31;;;10.74;68.23
67397;BME280;57728;50.448;18.824;2023-04-09T07:48:10;98593.88;;;10.79;67.93
67397;BME280;57728;50.448;18.824;2023-04-09T07:50:12;98540.44;;;10.46;67.91
67397;BME280;57728;50.448;18.824;2023-04-09T07:52:14;98599.88;;;10.94;67.86
67397;BME280;57728;50.448;18.824;2023-04-09T07:54:16;98602.94;;;11.05;67.83
67397;BME280;57728;50.448;18.824;2023-04-09T07:56:17;98600.56;;;11.15;67.52
67397;BME280;57728;50.448;18.824;2023-04-09T07:58:19;98595.06;;;11.22;66.99
67397;BME280;57728;50.448;18.824;2023-04-09T08:00:20;98540.31;;;10.98;67.05
67397;BME280;57728;50.448;18.824;2023-04-09T08:02:22;98564.91;;;11.16;66.90
67397;BME280;57728;50.448;18.824;2023-04-09T08:04:24;98565.22;;;11.27;66.65
67397;BME280;57728;50.448;18.824;2023-04-09T08:06:26;98591.63;;;11.58;66.14
67397;BME280;57728;50.448;18.824;2023-04-09T08:08:28;98499.63;;;11.03;66.05
67397;BME280;57728;50.448;18.824;2023-04-09T08:10:30;98599.06;;;11.69;66.11
67397;BME280;57728;50.448;18.824;2023-04-09T08:12:31;98429.78;;;10.58;65.80
67397;BME280;57728;50.448;18.824;2023-04-09T08:14:32;98512.91;;;11.18;65.79
67397;BME280;57728;50.448;18.824;2023-04-09T08:16:34;98408.63;;;10.60;65.66
67397;BME280;57728;50.448;18.824;2023-04-09T08:18:35;98570.63;;;11.59;65.49
67397;BME280;57728;50.448;18.824;2023-04-09T08:20:37;98606.28;;;11.82;65.31
67397;BME280;57728;50.448;18.824;2023-04-09T08:22:45;98438.88;;;10.77;65.07
67397;BME280;57728;50.448;18.824;2023-04-09T08:24:50;98585.56;;;11.75;65.09
67397;BME280;57728;50.448;18.824;2023-04-09T08:26:52;98613.53;;;11.95;65.17
67397;BME280;57728;50.448;18.824;2023-04-09T08:28:55;98410.00;;;10.70;64.92
67397;BME280;57728;50.448;18.824;2023-04-09T08:30:56;98614.00;;;12.11;64.72
67397;BME280;57728;50.448;18.824;2023-04-09T08:32:58;98544.66;;;11.75;64.40
67397;BME280;57728;50.448;18.824;2023-04-09T08:35:01;98542.38;;;11.72;64.49
67397;BME280;57728;50.448;18.824;2023-04-09T08:37:03;98529.13;;;11.75;64.39
67397;BME280;57728;50.448;18.824;2023-04-09T08:39:04;98502.00;;;11.62;63.57
67397;BME280;57728;50.448;18.824;2023-04-09T08:41:06;98609.75;;;12.33;63.69
67397;BME280;57728;50.448;18.824;2023-04-09T08:43:09;98535.84;;;11.98;63.67
67397;BME280;57728;50.448;18.824;2023-04-09T08:45:16;98607.00;;;12.52;63.14
67397;BME280;57728;50.448;18.824;2023-04-09T08:47:19;98516.97;;;11.96;63.22
67397;BME280;57728;50.448;18.824;2023-04-09T08:49:22;98568.50;;;12.42;63.15
67397;BME280;57728;50.448;18.824;2023-04-09T08:51:23;98463.50;;;11.88;62.93
67397;BME280;57728;50.448;18.824;2023-04-09T08:53:26;98401.56;;;11.59;61.86
67397;BME280;57728;50.448;18.824;2023-04-09T08:55:28;98601.94;;;12.86;62.35
67397;BME280;57728;50.448;18.824;2023-04-09T08:57:39;98581.34;;;12.71;62.02
67397;BME280;57728;50.448;18.824;2023-04-09T08:59:41;98537.69;;;12.53;62.12
67397;BME280;57728;50.448;18.824;2023-04-09T09:01:43;98562.22;;;12.71;61.83
67397;BME280;57728;50.448;18.824;2023-04-09T09:04:00;98624.16;;;13.20;61.75
67397;BME280;57728;50.448;18.824;2023-04-09T09:06:20;98613.34;;;13.25;61.16
67397;BME280;57728;50.448;18.824;2023-04-09T09:08:24;98543.25;;;12.88;60.88
67397;BME280;57728;50.448;18.824;2023-04-09T09:10:44;98612.59;;;13.36;60.78
67397;BME280;57728;50.448;18.824;2023-04-09T09:12:47;98612.00;;;13.46;60.53
67397;BME280;57728;50.448;18.824;2023-04-09T09:14:48;98502.13;;;12.83;59.90
67397;BME280;57728;50.448;18.824;2023-04-09T09:17:09;98619.03;;;13.54;59.87
67397;BME280;57728;50.448;18.824;2023-04-09T09:21:27;98615.38;;;13.60;59.91
67397;BME280;57728;50.448;18.824;2023-04-09T09:23:35;98572.81;;;13.34;59.67
67397;BME280;57728;50.448;18.824;2023-04-09T09:25:41;98411.66;;;12.37;59.66
67397;BME280;57728;50.448;18.824;2023-04-09T09:27:42;98548.06;;;13.17;59.18
67397;BME280;57728;50.448;18.824;2023-04-09T09:29:44;98556.59;;;13.39;59.22
67397;BME280;57728;50.448;18.824;2023-04-09T09:31:49;98619.88;;;13.78;58.90
67397;BME280;57728;50.448;18.824;2023-04-09T09:33:53;98447.38;;;12.78;58.50
67397;BME280;57728;50.448;18.824;2023-04-09T09:35:54;98543.88;;;13.45;58.79
67397;BME280;57728;50.448;18.824;2023-04-09T09:38:04;98471.63;;;12.98;58.50
67397;BME280;57728;50.448;18.824;2023-04-09T09:40:06;98569.78;;;13.54;58.57
67397;BME280;57728;50.448;18.824;2023-04-09T09:42:08;98616.06;;;13.91;58.05
67397;BME280;57728;50.448;18.824;2023-04-09T09:44:12;98566.69;;;13.62;58.29
67397;BME280;57728;50.448;18.824;2023-04-09T09:46:34;98577.38;;;13.75;57.50
67397;BME280;57728;50.448;18.824;2023-04-09T09:48:38;98519.34;;;13.50;57.62
67397;BME280;57728;50.448;18.824;2023-04-09T09:50:41;98544.34;;;13.77;57.32
67397;BME280;57728;50.448;18.824;2023-04-09T09:52:45;98580.59;;;14.20;57.43
67397;BME280;57728;50.448;18.824;2023-04-09T09:54:51;98610.19;;;14.47;57.13
67397;BME280;57728;50.448;18.824;2023-04-09T09:56:57;98586.47;;;14.40;57.15
67397;BME280;57728;50.448;18.824;2023-04-09T09:59:22;98601.91;;;14.58;56.10
67397;BME280;57728;50.448;18.824;2023-04-09T10:01:27;98572.66;;;14.47;56.16
67397;BME280;57728;50.448;18.824;2023-04-09T10:03:33;98479.44;;;13.89;55.80
67397;BME280;57728;50.448;18.824;2023-04-09T10:05:39;98574.66;;;14.64;55.56
67397;BME280;57728;50.448;18.824;2023-04-09T10:07:42;98531.78;;;14.45;55.32
67397;BME280;57728;50.448;18.824;2023-04-09T10:09:49;98595.06;;;14.85;55.31
67397;BME280;57728;50.448;18.824;2023-04-09T10:11:54;98596.25;;;14.89;55.75
67397;BME280;57728;50.448;18.824;2023-04-09T10:13:58;98597.88;;;14.90;55.33
67397;BME280;57728;50.448;18.824;2023-04-09T10:16:01;98505.16;;;14.41;54.86
67397;BME280;57728;50.448;18.824;2023-04-09T10:18:03;98588.59;;;14.91;54.64
67397;BME280;57728;50.448;18.824;2023-04-09T10:20:10;98592.91;;;14.87;54.31
67397;BME280;57728;50.448;18.824;2023-04-09T10:22:20;98590.28;;;14.80;54.65
67397;BME280;57728;50.448;18.824;2023-04-09T10:24:26;98543.69;;;14.51;54.26
67397;BME280;57728;50.448;18.824;2023-04-09T10:26:28;98433.22;;;13.64;54.56
67397;BME280;57728;50.448;18.824;2023-04-09T10:28:36;98589.19;;;14.64;53.85
67397;BME280;57728;50.448;18.824;2023-04-09T10:30:38;98540.69;;;14.12;54.10
67397;BME280;57728;50.448;18.824;2023-04-09T10:32:39;98590.56;;;14.26;54.38
67397;BME280;57728;50.448;18.824;2023-04-09T10:34:42;98520.44;;;13.61;54.36
67397;BME280;57728;50.448;18.824;2023-04-09T10:36:50;98547.41;;;13.57;54.73
67397;BME280;57728;50.448;18.824;2023-04-09T10:38:54;98415.34;;;12.55;55.00
67397;BME280;57728;50.448;18.824;2023-04-09T10:40:56;98507.19;;;13.22;55.59
67397;BME280;57728;50.448;18.824;2023-04-09T10:43:00;98549.03;;;13.34;55.65
67397;BME280;57728;50.448;18.824;2023-04-09T10:45:08;98531.19;;;13.08;55.42
67397;BME280;57728;50.448;18.824;2023-04-09T10:47:30;98528.88;;;12.93;56.00
67397;BME280;57728;50.448;18.824;2023-04-09T10:49:39;98586.81;;;13.14;55.84
67397;BME280;57728;50.448;18.824;2023-04-09T10:51:50;98422.53;;;11.95;56.08
67397;BME280;57728;50.448;18.824;2023-04-09T10:54:02;98417.38;;;11.68;56.39
67397;BME280;57728;50.448;18.824;2023-04-09T10:56:13;98516.66;;;12.23;56.73
67397;BME280;57728;50.448;18.824;2023-04-09T10:58:17;98559.91;;;12.38;56.93
67397;BME280;57728;50.448;18.824;2023-04-09T11:00:20;98587.44;;;12.36;57.29
67397;BME280;57728;50.448;18.824;2023-04-09T11:04:55;98588.81;;;12.09;57.88
67397;BME280;57728;50.448;18.824;2023-04-09T11:07:21;98596.34;;;11.95;58.53
67397;BME280;57728;50.448;18.824;2023-04-09T11:09:24;98556.47;;;11.68;58.93